LFSB/MLH METAR and TAF weather

Enter ICAO airport designator
Station Type Date Time Source
LFSB METAR 2018/12/19 09:00 UTC NOAA

LFSB 190900Z 16007KT 9000 -RA BKN041 03/01 Q1018 NOSIG


Station Type Date Time Source
LFSB Decoded METAR 2018/12/19 09:00 UTC NOAA

Bale-Mulhouse, France (LFSB) 47-36N 007-31E 271M
Dec 19, 2018 - 04:00 AM EST / 2018.12.19 0900 UTC
Wind: from the SSE (160 degrees) at 8 MPH (7 KT):0
Visibility: 5 mile(s):0
Sky conditions: mostly cloudy
Weather: light rain
Temperature: 37 F (3 C)
Dew Point: 33 F (1 C)
Relative Humidity: 86%
Pressure (altimeter): 30.06 in. Hg (1018 hPa)
ob: LFSB 190900Z 16007KT 9000 -RA BKN041 03/01 Q1018 NOSIG
cycle: 9

Station Type Date Time Source
LFSB TAF 2018/12/19 09:18 UTC NOAA

TAF
AMD LFSB 190906Z 1909/2006 18005KT 9999 BKN040
TEMPO 1909/1916 -RA PROB30
TEMPO 1909/1915 4000 RA
TEMPO 1916/2006 -SHRA PROB40
TEMPO 2000/2006 4000 SHRA FEW030TCU


Example: see airport list